sensor_id;sensor_type;location;lat;lon;timestamp;P1;durP1;ratioP1;P2;durP2;ratioP2
40997;SDS011;26740;45.944;12.480;2022-07-29T00:02:14;9.57;;;5.20;;
40997;SDS011;26740;45.944;12.480;2022-07-29T00:04:39;12.00;;;4.82;;
40997;SDS011;26740;45.944;12.480;2022-07-29T00:07:05;13.02;;;5.45;;
40997;SDS011;26740;45.944;12.480;2022-07-29T00:09:31;14.80;;;5.70;;
40997;SDS011;26740;45.944;12.480;2022-07-29T00:11:58;17.58;;;6.47;;
40997;SDS011;26740;45.944;12.480;2022-07-29T00:14:26;14.25;;;5.55;;
40997;SDS011;26740;45.944;12.480;2022-07-29T00:16:52;8.80;;;4.85;;
40997;SDS011;26740;45.944;12.480;2022-07-29T00:19:18;14.63;;;5.43;;
40997;SDS011;26740;45.944;12.480;2022-07-29T00:21:44;13.40;;;5.30;;
40997;SDS011;26740;45.944;12.480;2022-07-29T00:24:09;10.15;;;4.82;;
40997;SDS011;26740;45.944;12.480;2022-07-29T00:26:35;9.02;;;4.50;;
40997;SDS011;26740;45.944;12.480;2022-07-29T00:29:01;7.97;;;4.45;;
40997;SDS011;26740;45.944;12.480;2022-07-29T00:31:29;6.78;;;4.32;;
40997;SDS011;26740;45.944;12.480;2022-07-29T00:33:55;8.38;;;4.63;;
40997;SDS011;26740;45.944;12.480;2022-07-29T00:36:21;6.25;;;4.03;;
40997;SDS011;26740;45.944;12.480;2022-07-29T00:38:48;8.80;;;4.20;;
40997;SDS011;26740;45.944;12.480;2022-07-29T00:41:15;11.77;;;4.88;;
40997;SDS011;26740;45.944;12.480;2022-07-29T00:43:41;5.95;;;5.07;;
40997;SDS011;26740;45.944;12.480;2022-07-29T00:46:07;12.43;;;4.78;;
40997;SDS011;26740;45.944;12.480;2022-07-29T00:48:33;9.68;;;5.10;;
40997;SDS011;26740;45.944;12.480;2022-07-29T00:50:59;6.78;;;4.50;;
40997;SDS011;26740;45.944;12.480;2022-07-29T00:53:27;7.82;;;4.40;;
40997;SDS011;26740;45.944;12.480;2022-07-29T00:55:53;13.70;;;5.88;;
40997;SDS011;26740;45.944;12.480;2022-07-29T00:58:20;4.90;;;4.05;;
40997;SDS011;26740;45.944;12.480;2022-07-29T01:00:46;5.93;;;5.15;;
40997;SDS011;26740;45.944;12.480;2022-07-29T01:03:12;9.23;;;5.07;;
40997;SDS011;26740;45.944;12.480;2022-07-29T01:05:38;9.20;;;5.18;;
40997;SDS011;26740;45.944;12.480;2022-07-29T01:08:05;6.75;;;4.47;;
40997;SDS011;26740;45.944;12.480;2022-07-29T01:10:32;8.18;;;4.50;;
40997;SDS011;26740;45.944;12.480;2022-07-29T01:12:59;6.40;;;4.47;;
40997;SDS011;26740;45.944;12.480;2022-07-29T01:15:26;8.45;;;4.32;;
40997;SDS011;26740;45.944;12.480;2022-07-29T01:18:01;4.95;;;4.05;;
40997;SDS011;26740;45.944;12.480;2022-07-29T01:32:03;10.73;;;3.85;;
40997;SDS011;26740;45.944;12.480;2022-07-29T01:34:50;5.28;;;3.60;;
40997;SDS011;26740;45.944;12.480;2022-07-29T01:37:24;10.05;;;3.95;;
40997;SDS011;26740;45.944;12.480;2022-07-29T01:39:55;8.65;;;4.18;;
40997;SDS011;26740;45.944;12.480;2022-07-29T01:42:41;8.38;;;3.58;;
40997;SDS011;26740;45.944;12.480;2022-07-29T01:45:53;8.77;;;3.55;;
40997;SDS011;26740;45.944;12.480;2022-07-29T01:48:12;8.75;;;3.15;;
40997;SDS011;26740;45.944;12.480;2022-07-29T01:51:00;5.97;;;3.40;;
40997;SDS011;26740;45.944;12.480;2022-07-29T01:53:31;5.55;;;3.40;;
40997;SDS011;26740;45.944;12.480;2022-07-29T01:56:25;3.42;;;3.13;;
40997;SDS011;26740;45.944;12.480;2022-07-29T01:58:56;4.03;;;3.38;;
40997;SDS011;26740;45.944;12.480;2022-07-29T02:01:22;8.27;;;3.97;;
40997;SDS011;26740;45.944;12.480;2022-07-29T02:03:51;6.28;;;3.58;;
40997;SDS011;26740;45.944;12.480;2022-07-29T02:06:19;5.22;;;4.00;;
40997;SDS011;26740;45.944;12.480;2022-07-29T02:08:48;4.35;;;3.70;;
40997;SDS011;26740;45.944;12.480;2022-07-29T02:11:16;3.40;;;2.58;;
40997;SDS011;26740;45.944;12.480;2022-07-29T02:13:42;6.80;;;2.60;;
40997;SDS011;26740;45.944;12.480;2022-07-29T02:16:10;3.47;;;2.20;;
40997;SDS011;26740;45.944;12.480;2022-07-29T02:18:38;2.97;;;2.20;;
40997;SDS011;26740;45.944;12.480;2022-07-29T02:21:08;4.18;;;2.22;;
40997;SDS011;26740;45.944;12.480;2022-07-29T02:23:35;4.40;;;2.55;;
40997;SDS011;26740;45.944;12.480;2022-07-29T02:26:04;5.28;;;2.50;;
40997;SDS011;26740;45.944;12.480;2022-07-29T02:28:32;4.93;;;2.42;;
40997;SDS011;26740;45.944;12.480;2022-07-29T02:30:59;6.22;;;2.40;;
40997;SDS011;26740;45.944;12.480;2022-07-29T02:33:27;6.75;;;2.33;;
40997;SDS011;26740;45.944;12.480;2022-07-29T02:35:56;4.10;;;3.30;;
40997;SDS011;26740;45.944;12.480;2022-07-29T02:38:23;4.55;;;2.63;;
40997;SDS011;26740;45.944;12.480;2022-07-29T02:41:11;6.60;;;2.95;;
40997;SDS011;26740;45.944;12.480;2022-07-29T02:43:40;8.00;;;3.38;;
40997;SDS011;26740;45.944;12.480;2022-07-29T02:46:10;6.07;;;4.15;;
40997;SDS011;26740;45.944;12.480;2022-07-29T02:48:55;4.18;;;3.03;;
40997;SDS011;26740;45.944;12.480;2022-07-29T02:51:42;3.65;;;3.30;;
40997;SDS011;26740;45.944;12.480;2022-07-29T02:54:10;6.72;;;3.38;;
40997;SDS011;26740;45.944;12.480;2022-07-29T02:56:43;6.00;;;3.97;;
40997;SDS011;26740;45.944;12.480;2022-07-29T02:59:11;11.32;;;4.70;;
40997;SDS011;26740;45.944;12.480;2022-07-29T03:01:40;5.45;;;4.05;;
40997;SDS011;26740;45.944;12.480;2022-07-29T03:04:08;6.90;;;4.82;;
40997;SDS011;26740;45.944;12.480;2022-07-29T03:06:36;4.85;;;3.90;;
40997;SDS011;26740;45.944;12.480;2022-07-29T03:09:04;4.28;;;3.72;;
40997;SDS011;26740;45.944;12.480;2022-07-29T03:11:32;7.43;;;4.40;;
40997;SDS011;26740;45.944;12.480;2022-07-29T03:13:59;5.70;;;4.05;;
40997;SDS011;26740;45.944;12.480;2022-07-29T03:16:26;9.93;;;3.85;;
40997;SDS011;26740;45.944;12.480;2022-07-29T03:18:52;7.78;;;5.68;;
40997;SDS011;26740;45.944;12.480;2022-07-29T03:21:19;5.38;;;4.47;;
40997;SDS011;26740;45.944;12.480;2022-07-29T03:23:45;6.07;;;3.90;;
40997;SDS011;26740;45.944;12.480;2022-07-29T03:26:11;11.82;;;4.38;;
40997;SDS011;26740;45.944;12.480;2022-07-29T03:28:37;5.78;;;4.53;;
40997;SDS011;26740;45.944;12.480;2022-07-29T03:31:03;8.77;;;4.78;;
40997;SDS011;26740;45.944;12.480;2022-07-29T03:33:29;6.90;;;3.85;;
40997;SDS011;26740;45.944;12.480;2022-07-29T03:35:55;7.75;;;4.28;;
40997;SDS011;26740;45.944;12.480;2022-07-29T03:38:23;4.30;;;3.88;;
40997;SDS011;26740;45.944;12.480;2022-07-29T03:43:32;6.03;;;4.35;;
40997;SDS011;26740;45.944;12.480;2022-07-29T03:46:01;7.45;;;4.32;;
40997;SDS011;26740;45.944;12.480;2022-07-29T03:48:29;6.28;;;4.22;;
40997;SDS011;26740;45.944;12.480;2022-07-29T03:50:58;7.80;;;4.57;;
40997;SDS011;26740;45.944;12.480;2022-07-29T03:53:24;4.93;;;4.47;;
40997;SDS011;26740;45.944;12.480;2022-07-29T03:55:50;6.43;;;4.68;;
40997;SDS011;26740;45.944;12.480;2022-07-29T03:58:20;6.45;;;5.38;;
40997;SDS011;26740;45.944;12.480;2022-07-29T04:00:46;9.68;;;4.97;;
40997;SDS011;26740;45.944;12.480;2022-07-29T04:03:13;9.20;;;5.28;;
40997;SDS011;26740;45.944;12.480;2022-07-29T04:05:38;13.13;;;5.07;;
40997;SDS011;26740;45.944;12.480;2022-07-29T04:08:04;9.20;;;4.50;;
40997;SDS011;26740;45.944;12.480;2022-07-29T04:10:31;7.13;;;4.85;;
40997;SDS011;26740;45.944;12.480;2022-07-29T04:12:57;11.88;;;4.97;;
40997;SDS011;26740;45.944;12.480;2022-07-29T04:15:22;10.10;;;4.40;;
40997;SDS011;26740;45.944;12.480;2022-07-29T04:17:48;6.93;;;4.93;;
40997;SDS011;26740;45.944;12.480;2022-07-29T04:20:14;10.90;;;5.78;;
40997;SDS011;26740;45.944;12.480;2022-07-29T04:22:40;8.10;;;4.78;;
40997;SDS011;26740;45.944;12.480;2022-07-29T04:25:06;6.13;;;4.55;;
40997;SDS011;26740;45.944;12.480;2022-07-29T04:27:32;8.60;;;5.20;;
40997;SDS011;26740;45.944;12.480;2022-07-29T04:29:58;7.75;;;4.70;;
40997;SDS011;26740;45.944;12.480;2022-07-29T04:32:24;5.72;;;4.50;;
40997;SDS011;26740;45.944;12.480;2022-07-29T04:34:50;10.68;;;4.90;;
40997;SDS011;26740;45.944;12.480;2022-07-29T04:37:16;6.72;;;4.65;;
40997;SDS011;26740;45.944;12.480;2022-07-29T04:39:42;6.65;;;4.38;;
40997;SDS011;26740;45.944;12.480;2022-07-29T04:42:07;5.13;;;4.00;;
40997;SDS011;26740;45.944;12.480;2022-07-29T04:44:33;9.07;;;4.38;;
40997;SDS011;26740;45.944;12.480;2022-07-29T04:46:59;5.57;;;4.35;;
40997;SDS011;26740;45.944;12.480;2022-07-29T04:49:24;9.63;;;4.70;;
40997;SDS011;26740;45.944;12.480;2022-07-29T04:51:50;4.50;;;4.03;;
40997;SDS011;26740;45.944;12.480;2022-07-29T04:54:16;7.18;;;4.18;;
40997;SDS011;26740;45.944;12.480;2022-07-29T04:56:42;5.25;;;4.75;;
40997;SDS011;26740;45.944;12.480;2022-07-29T04:59:07;6.30;;;4.13;;
40997;SDS011;26740;45.944;12.480;2022-07-29T05:01:34;4.38;;;3.97;;
40997;SDS011;26740;45.944;12.480;2022-07-29T05:03:59;7.97;;;4.03;;
40997;SDS011;26740;45.944;12.480;2022-07-29T05:06:25;6.55;;;4.03;;
40997;SDS011;26740;45.944;12.480;2022-07-29T05:08:50;4.80;;;3.45;;
40997;SDS011;26740;45.944;12.480;2022-07-29T05:11:16;4.68;;;3.72;;
40997;SDS011;26740;45.944;12.480;2022-07-29T05:13:41;5.30;;;2.70;;
40997;SDS011;26740;45.944;12.480;2022-07-29T05:16:07;3.42;;;2.90;;
40997;SDS011;26740;45.944;12.480;2022-07-29T05:18:33;5.72;;;3.33;;
40997;SDS011;26740;45.944;12.480;2022-07-29T05:20:59;4.47;;;3.13;;
40997;SDS011;26740;45.944;12.480;2022-07-29T05:23:25;7.07;;;3.58;;
40997;SDS011;26740;45.944;12.480;2022-07-29T05:25:50;7.50;;;3.72;;
40997;SDS011;26740;45.944;12.480;2022-07-29T05:28:16;4.85;;;2.78;;
40997;SDS011;26740;45.944;12.480;2022-07-29T05:30:42;2.38;;;2.17;;
40997;SDS011;26740;45.944;12.480;2022-07-29T05:33:09;3.58;;;2.67;;
40997;SDS011;26740;45.944;12.480;2022-07-29T05:35:35;6.72;;;2.75;;
40997;SDS011;26740;45.944;12.480;2022-07-29T05:38:02;5.28;;;1.98;;
40997;SDS011;26740;45.944;12.480;2022-07-29T05:40:28;3.42;;;2.28;;
40997;SDS011;26740;45.944;12.480;2022-07-29T05:42:55;4.32;;;1.90;;
40997;SDS011;26740;45.944;12.480;2022-07-29T05:45:20;3.35;;;1.75;;
40997;SDS011;26740;45.944;12.480;2022-07-29T05:47:46;1.88;;;1.77;;
40997;SDS011;26740;45.944;12.480;2022-07-29T05:50:12;4.38;;;1.75;;
40997;SDS011;26740;45.944;12.480;2022-07-29T05:52:38;5.45;;;1.85;;
40997;SDS011;26740;45.944;12.480;2022-07-29T05:55:04;4.75;;;2.17;;
40997;SDS011;26740;45.944;12.480;2022-07-29T05:57:30;4.50;;;2.20;;
40997;SDS011;26740;45.944;12.480;2022-07-29T05:59:57;3.28;;;2.47;;
40997;SDS011;26740;45.944;12.480;2022-07-29T06:02:23;5.43;;;1.75;;
40997;SDS011;26740;45.944;12.480;2022-07-29T06:04:48;3.28;;;2.08;;
40997;SDS011;26740;45.944;12.480;2022-07-29T06:07:14;3.53;;;2.00;;
40997;SDS011;26740;45.944;12.480;2022-07-29T06:09:41;4.35;;;1.70;;
40997;SDS011;26740;45.944;12.480;2022-07-29T06:12:08;4.78;;;1.90;;
40997;SDS011;26740;45.944;12.480;2022-07-29T06:14:34;3.50;;;1.75;;
40997;SDS011;26740;45.944;12.480;2022-07-29T06:17:00;5.40;;;1.65;;
40997;SDS011;26740;45.944;12.480;2022-07-29T06:19:27;4.60;;;1.52;;
40997;SDS011;26740;45.944;12.480;2022-07-29T06:21:52;7.18;;;2.00;;
40997;SDS011;26740;45.944;12.480;2022-07-29T06:24:18;2.53;;;1.83;;
40997;SDS011;26740;45.944;12.480;2022-07-29T06:26:44;4.78;;;2.20;;
40997;SDS011;26740;45.944;12.480;2022-07-29T06:29:10;3.78;;;1.38;;
40997;SDS011;26740;45.944;12.480;2022-07-29T06:31:36;4.63;;;1.45;;
40997;SDS011;26740;45.944;12.480;2022-07-29T06:34:02;4.43;;;1.52;;
40997;SDS011;26740;45.944;12.480;2022-07-29T06:36:28;3.47;;;1.35;;
40997;SDS011;26740;45.944;12.480;2022-07-29T06:38:54;3.65;;;1.42;;
40997;SDS011;26740;45.944;12.480;2022-07-29T06:41:19;6.18;;;1.55;;
40997;SDS011;26740;45.944;12.480;2022-07-29T06:43:45;7.65;;;1.67;;
40997;SDS011;26740;45.944;12.480;2022-07-29T06:46:12;1.58;;;1.10;;
40997;SDS011;26740;45.944;12.480;2022-07-29T06:48:43;3.63;;;1.55;;
40997;SDS011;26740;45.944;12.480;2022-07-29T06:51:09;3.03;;;1.50;;
40997;SDS011;26740;45.944;12.480;2022-07-29T06:53:37;3.30;;;1.35;;
40997;SDS011;26740;45.944;12.480;2022-07-29T06:56:04;2.50;;;1.10;;
40997;SDS011;26740;45.944;12.480;2022-07-29T06:58:33;1.73;;;1.13;;
40997;SDS011;26740;45.944;12.480;2022-07-29T07:01:04;4.22;;;1.38;;
40997;SDS011;26740;45.944;12.480;2022-07-29T07:03:30;3.17;;;1.42;;
40997;SDS011;26740;45.944;12.480;2022-07-29T07:05:56;2.90;;;1.30;;
40997;SDS011;26740;45.944;12.480;2022-07-29T07:08:22;4.15;;;1.40;;
40997;SDS011;26740;45.944;12.480;2022-07-29T07:10:49;3.58;;;1.50;;
40997;SDS011;26740;45.944;12.480;2022-07-29T07:13:16;5.68;;;1.30;;
40997;SDS011;26740;45.944;12.480;2022-07-29T07:15:42;4.50;;;1.20;;
40997;SDS011;26740;45.944;12.480;2022-07-29T07:18:09;2.28;;;1.40;;
40997;SDS011;26740;45.944;12.480;2022-07-29T07:20:35;1.67;;;1.10;;
40997;SDS011;26740;45.944;12.480;2022-07-29T07:23:01;2.08;;;1.48;;
40997;SDS011;26740;45.944;12.480;2022-07-29T07:25:27;3.75;;;1.60;;
40997;SDS011;26740;45.944;12.480;2022-07-29T07:27:52;2.15;;;1.23;;
40997;SDS011;26740;45.944;12.480;2022-07-29T07:30:18;3.00;;;1.58;;
40997;SDS011;26740;45.944;12.480;2022-07-29T07:32:44;5.07;;;1.10;;
40997;SDS011;26740;45.944;12.480;2022-07-29T07:35:10;2.65;;;1.13;;
40997;SDS011;26740;45.944;12.480;2022-07-29T07:37:36;3.42;;;1.48;;
40997;SDS011;26740;45.944;12.480;2022-07-29T07:40:02;3.00;;;1.30;;
40997;SDS011;26740;45.944;12.480;2022-07-29T07:42:29;4.28;;;1.90;;
40997;SDS011;26740;45.944;12.480;2022-07-29T07:44:54;1.92;;;1.58;;
40997;SDS011;26740;45.944;12.480;2022-07-29T07:47:20;2.78;;;1.60;;
40997;SDS011;26740;45.944;12.480;2022-07-29T07:49:46;1.88;;;1.40;;
40997;SDS011;26740;45.944;12.480;2022-07-29T07:52:12;1.85;;;1.30;;
40997;SDS011;26740;45.944;12.480;2022-07-29T07:54:39;2.50;;;1.52;;
40997;SDS011;26740;45.944;12.480;2022-07-29T07:57:05;2.08;;;1.40;;
40997;SDS011;26740;45.944;12.480;2022-07-29T07:59:30;3.58;;;1.73;;
40997;SDS011;26740;45.944;12.480;2022-07-29T08:01:56;3.42;;;1.60;;
40997;SDS011;26740;45.944;12.480;2022-07-29T08:04:22;3.22;;;1.73;;
40997;SDS011;26740;45.944;12.480;2022-07-29T08:06:50;2.47;;;1.75;;
40997;SDS011;26740;45.944;12.480;2022-07-29T08:09:15;4.72;;;1.55;;
40997;SDS011;26740;45.944;12.480;2022-07-29T08:11:41;2.08;;;1.90;;
40997;SDS011;26740;45.944;12.480;2022-07-29T08:14:07;3.33;;;1.50;;
40997;SDS011;26740;45.944;12.480;2022-07-29T08:16:33;3.00;;;2.30;;
40997;SDS011;26740;45.944;12.480;2022-07-29T08:18:58;2.20;;;1.67;;
40997;SDS011;26740;45.944;12.480;2022-07-29T08:21:24;2.83;;;1.58;;
40997;SDS011;26740;45.944;12.480;2022-07-29T08:23:51;2.78;;;1.75;;
40997;SDS011;26740;45.944;12.480;2022-07-29T08:26:40;2.85;;;1.60;;
40997;SDS011;26740;45.944;12.480;2022-07-29T08:29:06;4.63;;;2.83;;
40997;SDS011;26740;45.944;12.480;2022-07-29T08:31:32;2.17;;;1.77;;
40997;SDS011;26740;45.944;12.480;2022-07-29T08:33:57;2.63;;;2.08;;
40997;SDS011;26740;45.944;12.480;2022-07-29T08:36:25;1.73;;;1.50;;
40997;SDS011;26740;45.944;12.480;2022-07-29T08:38:51;4.25;;;1.55;;
40997;SDS011;26740;45.944;12.480;2022-07-29T08:41:18;2.55;;;1.80;;
40997;SDS011;26740;45.944;12.480;2022-07-29T08:43:44;1.42;;;1.33;;
40997;SDS011;26740;45.944;12.480;2022-07-29T08:46:10;4.07;;;1.80;;
40997;SDS011;26740;45.944;12.480;2022-07-29T08:48:36;5.80;;;1.90;;
40997;SDS011;26740;45.944;12.480;2022-07-29T08:51:02;3.67;;;1.88;;
40997;SDS011;26740;45.944;12.480;2022-07-29T08:53:30;2.80;;;2.33;;
40997;SDS011;26740;45.944;12.480;2022-07-29T08:55:57;3.40;;;1.83;;
40997;SDS011;26740;45.944;12.480;2022-07-29T08:58:24;2.45;;;1.95;;
40997;SDS011;26740;45.944;12.480;2022-07-29T09:00:55;2.22;;;1.67;;
40997;SDS011;26740;45.944;12.480;2022-07-29T09:03:25;4.13;;;1.60;;
40997;SDS011;26740;45.944;12.480;2022-07-29T09:05:54;3.80;;;1.83;;
40997;SDS011;26740;45.944;12.480;2022-07-29T09:08:20;2.85;;;1.85;;
40997;SDS011;26740;45.944;12.480;2022-07-29T09:10:46;5.78;;;2.03;;
40997;SDS011;26740;45.944;12.480;2022-07-29T09:13:12;3.20;;;1.90;;
40997;SDS011;26740;45.944;12.480;2022-07-29T09:15:37;3.63;;;1.80;;
40997;SDS011;26740;45.944;12.480;2022-07-29T09:18:03;6.55;;;2.03;;
40997;SDS011;26740;45.944;12.480;2022-07-29T09:20:29;3.40;;;1.90;;
40997;SDS011;26740;45.944;12.480;2022-07-29T09:23:14;3.85;;;1.98;;
40997;SDS011;26740;45.944;12.480;2022-07-29T09:25:40;5.80;;;2.00;;
40997;SDS011;26740;45.944;12.480;2022-07-29T09:28:11;2.47;;;2.00;;
40997;SDS011;26740;45.944;12.480;2022-07-29T09:30:53;3.72;;;1.70;;
40997;SDS011;26740;45.944;12.480;2022-07-29T09:33:33;3.20;;;1.92;;
40997;SDS011;26740;45.944;12.480;2022-07-29T09:36:04;7.10;;;2.55;;
40997;SDS011;26740;45.944;12.480;2022-07-29T09:38:32;2.45;;;2.15;;
40997;SDS011;26740;45.944;12.480;2022-07-29T09:40:59;6.43;;;2.15;;
40997;SDS011;26740;45.944;12.480;2022-07-29T09:43:27;3.40;;;2.20;;
40997;SDS011;26740;45.944;12.480;2022-07-29T09:45:53;6.80;;;2.05;;
40997;SDS011;26740;45.944;12.480;2022-07-29T09:48:21;6.45;;;2.55;;
40997;SDS011;26740;45.944;12.480;2022-07-29T09:50:48;3.28;;;2.03;;
40997;SDS011;26740;45.944;12.480;2022-07-29T09:53:31;4.78;;;2.08;;
40997;SDS011;26740;45.944;12.480;2022-07-29T09:55:59;3.03;;;2.10;;
40997;SDS011;26740;45.944;12.480;2022-07-29T09:58:25;6.68;;;2.75;;
40997;SDS011;26740;45.944;12.480;2022-07-29T10:00:51;6.25;;;2.10;;
40997;SDS011;26740;45.944;12.480;2022-07-29T10:03:18;4.60;;;2.10;;
40997;SDS011;26740;45.944;12.480;2022-07-29T10:05:45;5.18;;;2.00;;
40997;SDS011;26740;45.944;12.480;2022-07-29T10:08:11;3.65;;;2.47;;
40997;SDS011;26740;45.944;12.480;2022-07-29T10:10:41;6.17;;;2.37;;
40997;SDS011;26740;45.944;12.480;2022-07-29T10:13:11;2.20;;;2.00;;
40997;SDS011;26740;45.944;12.480;2022-07-29T10:15:38;3.83;;;2.20;;
40997;SDS011;26740;45.944;12.480;2022-07-29T10:18:08;2.42;;;2.13;;
40997;SDS011;26740;45.944;12.480;2022-07-29T10:20:36;2.22;;;1.90;;
40997;SDS011;26740;45.944;12.480;2022-07-29T10:23:03;10.05;;;2.13;;
40997;SDS011;26740;45.944;12.480;2022-07-29T10:25:29;4.13;;;2.17;;
40997;SDS011;26740;45.944;12.480;2022-07-29T10:27:55;4.97;;;2.15;;
40997;SDS011;26740;45.944;12.480;2022-07-29T10:30:22;4.68;;;2.05;;
40997;SDS011;26740;45.944;12.480;2022-07-29T10:35:43;2.75;;;2.15;;
40997;SDS011;26740;45.944;12.480;2022-07-29T10:44:00;1.80;;;1.67;;
40997;SDS011;26740;45.944;12.480;2022-07-29T10:46:29;5.53;;;1.90;;
40997;SDS011;26740;45.944;12.480;2022-07-29T10:49:04;2.53;;;1.70;;
40997;SDS011;26740;45.944;12.480;2022-07-29T10:57:12;3.95;;;2.00;;
40997;SDS011;26740;45.944;12.480;2022-07-29T10:59:42;4.13;;;2.03;;
40997;SDS011;26740;45.944;12.480;2022-07-29T11:07:23;3.53;;;1.55;;
40997;SDS011;26740;45.944;12.480;2022-07-29T11:15:05;1.95;;;1.80;;
40997;SDS011;26740;45.944;12.480;2022-07-29T11:28:52;2.20;;;1.98;;
40997;SDS011;26740;45.944;12.480;2022-07-29T11:34:15;2.35;;;2.13;;
40997;SDS011;26740;45.944;12.480;2022-07-29T11:39:39;1.63;;;1.50;;
40997;SDS011;26740;45.944;12.480;2022-07-29T11:47:42;4.35;;;1.55;;
40997;SDS011;26740;45.944;12.480;2022-07-29T11:50:12;1.95;;;1.75;;
40997;SDS011;26740;45.944;12.480;2022-07-29T11:52:40;2.83;;;1.95;;
40997;SDS011;26740;45.944;12.480;2022-07-29T11:55:15;3.58;;;1.98;;
40997;SDS011;26740;45.944;12.480;2022-07-29T11:57:46;6.13;;;1.77;;
40997;SDS011;26740;45.944;12.480;2022-07-29T12:00:56;1.70;;;1.60;;
40997;SDS011;26740;45.944;12.480;2022-07-29T12:03:24;4.38;;;1.70;;
40997;SDS011;26740;45.944;12.480;2022-07-29T12:05:53;3.05;;;1.58;;
40997;SDS011;26740;45.944;12.480;2022-07-29T12:08:22;5.30;;;1.90;;
40997;SDS011;26740;45.944;12.480;2022-07-29T12:10:51;44.92;;;5.53;;
40997;SDS011;26740;45.944;12.480;2022-07-29T12:13:20;3.17;;;2.10;;
40997;SDS011;26740;45.944;12.480;2022-07-29T12:15:56;4.88;;;1.98;;
40997;SDS011;26740;45.944;12.480;2022-07-29T12:18:23;2.50;;;1.65;;
40997;SDS011;26740;45.944;12.480;2022-07-29T12:20:56;3.58;;;1.98;;
40997;SDS011;26740;45.944;12.480;2022-07-29T12:23:23;4.63;;;1.70;;
40997;SDS011;26740;45.944;12.480;2022-07-29T12:25:49;7.95;;;1.95;;
40997;SDS011;26740;45.944;12.480;2022-07-29T12:28:14;5.13;;;2.13;;
40997;SDS011;26740;45.944;12.480;2022-07-29T12:30:44;2.15;;;1.30;;
40997;SDS011;26740;45.944;12.480;2022-07-29T12:35:48;1.55;;;1.15;;
40997;SDS011;26740;45.944;12.480;2022-07-29T12:38:19;2.25;;;1.45;;
40997;SDS011;26740;45.944;12.480;2022-07-29T12:40:46;3.60;;;1.65;;
40997;SDS011;26740;45.944;12.480;2022-07-29T12:43:17;3.85;;;1.65;;
40997;SDS011;26740;45.944;12.480;2022-07-29T12:45:45;3.42;;;1.55;;
40997;SDS011;26740;45.944;12.480;2022-07-29T12:48:13;3.78;;;1.35;;
40997;SDS011;26740;45.944;12.480;2022-07-29T12:50:52;2.33;;;1.30;;
40997;SDS011;26740;45.944;12.480;2022-07-29T12:53:22;2.97;;;1.88;;
40997;SDS011;26740;45.944;12.480;2022-07-29T12:55:50;3.42;;;1.55;;
40997;SDS011;26740;45.944;12.480;2022-07-29T12:58:33;3.53;;;1.30;;
40997;SDS011;26740;45.944;12.480;2022-07-29T13:01:10;1.27;;;1.17;;
40997;SDS011;26740;45.944;12.480;2022-07-29T13:03:43;3.50;;;1.30;;
40997;SDS011;26740;45.944;12.480;2022-07-29T13:06:28;1.67;;;1.40;;
40997;SDS011;26740;45.944;12.480;2022-07-29T13:09:07;2.95;;;1.25;;
40997;SDS011;26740;45.944;12.480;2022-07-29T13:11:42;1.60;;;1.30;;
40997;SDS011;26740;45.944;12.480;2022-07-29T13:14:11;5.40;;;1.58;;
40997;SDS011;26740;45.944;12.480;2022-07-29T13:19:34;1.42;;;1.10;;
40997;SDS011;26740;45.944;12.480;2022-07-29T13:22:09;2.35;;;1.30;;
40997;SDS011;26740;45.944;12.480;2022-07-29T13:24:55;2.58;;;1.48;;
40997;SDS011;26740;45.944;12.480;2022-07-29T13:27:24;4.88;;;1.60;;
40997;SDS011;26740;45.944;12.480;2022-07-29T13:29:52;2.00;;;1.30;;
40997;SDS011;26740;45.944;12.480;2022-07-29T13:32:20;2.00;;;1.38;;
40997;SDS011;26740;45.944;12.480;2022-07-29T13:34:46;1.40;;;1.30;;
40997;SDS011;26740;45.944;12.480;2022-07-29T13:37:11;3.75;;;1.40;;
40997;SDS011;26740;45.944;12.480;2022-07-29T13:39:37;4.72;;;1.42;;
40997;SDS011;26740;45.944;12.480;2022-07-29T13:42:03;1.42;;;1.33;;
40997;SDS011;26740;45.944;12.480;2022-07-29T13:44:31;2.10;;;1.52;;
40997;SDS011;26740;45.944;12.480;2022-07-29T13:46:57;2.45;;;1.13;;
40997;SDS011;26740;45.944;12.480;2022-07-29T13:49:24;1.75;;;1.63;;
40997;SDS011;26740;45.944;12.480;2022-07-29T13:51:50;2.92;;;1.60;;
40997;SDS011;26740;45.944;12.480;2022-07-29T13:54:16;2.97;;;1.80;;
40997;SDS011;26740;45.944;12.480;2022-07-29T13:56:42;1.40;;;1.30;;
40997;SDS011;26740;45.944;12.480;2022-07-29T13:59:07;2.60;;;1.00;;
40997;SDS011;26740;45.944;12.480;2022-07-29T14:01:36;6.32;;;1.80;;
40997;SDS011;26740;45.944;12.480;2022-07-29T14:04:02;5.78;;;2.00;;
40997;SDS011;26740;45.944;12.480;2022-07-29T14:06:28;1.85;;;1.02;;
40997;SDS011;26740;45.944;12.480;2022-07-29T14:08:54;3.88;;;1.55;;
40997;SDS011;26740;45.944;12.480;2022-07-29T14:11:20;3.53;;;1.23;;
40997;SDS011;26740;45.944;12.480;2022-07-29T14:13:45;2.03;;;1.65;;
40997;SDS011;26740;45.944;12.480;2022-07-29T14:16:11;2.60;;;1.50;;
40997;SDS011;26740;45.944;12.480;2022-07-29T14:18:37;2.33;;;1.75;;
40997;SDS011;26740;45.944;12.480;2022-07-29T14:21:02;2.67;;;1.85;;
40997;SDS011;26740;45.944;12.480;2022-07-29T14:23:28;4.10;;;1.77;;
40997;SDS011;26740;45.944;12.480;2022-07-29T14:25:54;2.10;;;1.90;;
40997;SDS011;26740;45.944;12.480;2022-07-29T14:28:19;3.05;;;1.90;;
40997;SDS011;26740;45.944;12.480;2022-07-29T14:30:45;11.10;;;2.35;;
40997;SDS011;26740;45.944;12.480;2022-07-29T14:33:11;4.10;;;1.88;;
40997;SDS011;26740;45.944;12.480;2022-07-29T14:35:37;4.82;;;1.80;;
40997;SDS011;26740;45.944;12.480;2022-07-29T14:38:03;3.67;;;1.77;;
40997;SDS011;26740;45.944;12.480;2022-07-29T14:40:28;4.45;;;2.05;;
40997;SDS011;26740;45.944;12.480;2022-07-29T14:42:54;3.03;;;2.20;;
40997;SDS011;26740;45.944;12.480;2022-07-29T14:45:20;5.55;;;1.70;;
40997;SDS011;26740;45.944;12.480;2022-07-29T14:47:46;6.07;;;2.08;;
40997;SDS011;26740;45.944;12.480;2022-07-29T14:50:11;7.60;;;2.35;;
40997;SDS011;26740;45.944;12.480;2022-07-29T14:52:38;5.93;;;1.80;;
40997;SDS011;26740;45.944;12.480;2022-07-29T14:55:04;2.90;;;1.52;;
40997;SDS011;26740;45.944;12.480;2022-07-29T14:57:31;6.53;;;2.83;;
40997;SDS011;26740;45.944;12.480;2022-07-29T14:59:57;4.20;;;2.22;;
40997;SDS011;26740;45.944;12.480;2022-07-29T15:02:22;2.05;;;1.85;;
40997;SDS011;26740;45.944;12.480;2022-07-29T15:04:48;6.88;;;2.10;;
40997;SDS011;26740;45.944;12.480;2022-07-29T15:07:14;3.17;;;2.03;;
40997;SDS011;26740;45.944;12.480;2022-07-29T15:09:41;3.03;;;1.90;;
40997;SDS011;26740;45.944;12.480;2022-07-29T15:12:07;4.60;;;1.85;;
40997;SDS011;26740;45.944;12.480;2022-07-29T15:14:35;4.50;;;2.38;;
40997;SDS011;26740;45.944;12.480;2022-07-29T15:17:01;5.30;;;2.13;;
40997;SDS011;26740;45.944;12.480;2022-07-29T15:19:27;3.58;;;2.47;;
40997;SDS011;26740;45.944;12.480;2022-07-29T15:21:52;3.45;;;1.90;;
40997;SDS011;26740;45.944;12.480;2022-07-29T15:24:18;4.97;;;2.35;;
40997;SDS011;26740;45.944;12.480;2022-07-29T15:26:44;5.20;;;2.22;;
40997;SDS011;26740;45.944;12.480;2022-07-29T15:29:10;3.25;;;2.00;;
40997;SDS011;26740;45.944;12.480;2022-07-29T15:31:36;3.85;;;2.30;;
40997;SDS011;26740;45.944;12.480;2022-07-29T15:34:01;4.35;;;1.95;;
40997;SDS011;26740;45.944;12.480;2022-07-29T15:36:27;2.42;;;2.03;;
40997;SDS011;26740;45.944;12.480;2022-07-29T15:38:53;4.40;;;2.10;;
40997;SDS011;26740;45.944;12.480;2022-07-29T15:41:19;6.90;;;2.10;;
40997;SDS011;26740;45.944;12.480;2022-07-29T15:43:45;2.63;;;1.70;;
40997;SDS011;26740;45.944;12.480;2022-07-29T15:46:13;2.47;;;2.03;;